sensor_id;sensor_type;location;lat;lon;timestamp;P1;durP1;ratioP1;P2;durP2;ratioP2
583;SDS011;27024;54.068;12.116;2023-04-24T00:01:03;7.07;;;4.70;;
583;SDS011;27024;54.068;12.116;2023-04-24T00:03:34;7.40;;;4.95;;
583;SDS011;27024;54.068;12.116;2023-04-24T00:06:01;6.13;;;4.60;;
583;SDS011;27024;54.068;12.116;2023-04-24T00:08:29;6.60;;;4.80;;
583;SDS011;27024;54.068;12.116;2023-04-24T00:10:56;5.32;;;4.05;;
583;SDS011;27024;54.068;12.116;2023-04-24T00:13:23;5.82;;;3.80;;
583;SDS011;27024;54.068;12.116;2023-04-24T00:15:50;6.72;;;4.38;;
583;SDS011;27024;54.068;12.116;2023-04-24T00:18:17;6.88;;;4.82;;
583;SDS011;27024;54.068;12.116;2023-04-24T00:20:44;5.95;;;4.30;;
583;SDS011;27024;54.068;12.116;2023-04-24T00:23:11;6.88;;;4.78;;
583;SDS011;27024;54.068;12.116;2023-04-24T00:25:38;6.20;;;4.40;;
583;SDS011;27024;54.068;12.116;2023-04-24T00:28:05;5.75;;;4.30;;
583;SDS011;27024;54.068;12.116;2023-04-24T00:30:32;6.55;;;4.47;;
583;SDS011;27024;54.068;12.116;2023-04-24T00:32:59;5.68;;;4.45;;
583;SDS011;27024;54.068;12.116;2023-04-24T00:35:26;6.30;;;4.30;;
583;SDS011;27024;54.068;12.116;2023-04-24T00:37:53;7.18;;;4.70;;
583;SDS011;27024;54.068;12.116;2023-04-24T00:40:20;6.55;;;4.28;;
583;SDS011;27024;54.068;12.116;2023-04-24T00:42:47;6.85;;;4.45;;
583;SDS011;27024;54.068;12.116;2023-04-24T00:45:14;6.15;;;4.47;;
583;SDS011;27024;54.068;12.116;2023-04-24T00:47:41;7.10;;;4.70;;
583;SDS011;27024;54.068;12.116;2023-04-24T00:50:08;5.80;;;4.43;;
583;SDS011;27024;54.068;12.116;2023-04-24T00:52:35;5.70;;;4.10;;
583;SDS011;27024;54.068;12.116;2023-04-24T00:55:03;8.15;;;3.90;;
583;SDS011;27024;54.068;12.116;2023-04-24T00:57:30;6.43;;;4.50;;
583;SDS011;27024;54.068;12.116;2023-04-24T00:59:57;6.22;;;4.28;;
583;SDS011;27024;54.068;12.116;2023-04-24T01:02:24;5.43;;;4.00;;
583;SDS011;27024;54.068;12.116;2023-04-24T01:04:51;6.45;;;4.13;;
583;SDS011;27024;54.068;12.116;2023-04-24T01:07:19;6.70;;;4.38;;
583;SDS011;27024;54.068;12.116;2023-04-24T01:09:47;6.50;;;4.32;;
583;SDS011;27024;54.068;12.116;2023-04-24T01:12:18;7.10;;;4.35;;
583;SDS011;27024;54.068;12.116;2023-04-24T01:14:45;6.75;;;4.50;;
583;SDS011;27024;54.068;12.116;2023-04-24T01:17:12;5.97;;;4.55;;
583;SDS011;27024;54.068;12.116;2023-04-24T01:19:39;6.07;;;4.10;;
583;SDS011;27024;54.068;12.116;2023-04-24T01:22:08;6.82;;;3.83;;
583;SDS011;27024;54.068;12.116;2023-04-24T01:24:38;4.78;;;3.53;;
583;SDS011;27024;54.068;12.116;2023-04-24T01:27:05;7.65;;;3.75;;
583;SDS011;27024;54.068;12.116;2023-04-24T01:29:33;6.85;;;4.03;;
583;SDS011;27024;54.068;12.116;2023-04-24T01:32:00;5.93;;;3.75;;
583;SDS011;27024;54.068;12.116;2023-04-24T01:34:29;7.95;;;4.18;;
583;SDS011;27024;54.068;12.116;2023-04-24T01:36:56;5.75;;;4.63;;
583;SDS011;27024;54.068;12.116;2023-04-24T01:39:23;6.53;;;4.18;;
583;SDS011;27024;54.068;12.116;2023-04-24T01:41:52;6.43;;;3.80;;
583;SDS011;27024;54.068;12.116;2023-04-24T01:44:20;5.50;;;3.90;;
583;SDS011;27024;54.068;12.116;2023-04-24T01:46:47;6.25;;;3.95;;
583;SDS011;27024;54.068;12.116;2023-04-24T01:49:14;6.15;;;3.97;;
583;SDS011;27024;54.068;12.116;2023-04-24T01:51:41;6.35;;;4.13;;
583;SDS011;27024;54.068;12.116;2023-04-24T01:54:08;5.43;;;3.72;;
583;SDS011;27024;54.068;12.116;2023-04-24T01:56:35;7.55;;;4.72;;
583;SDS011;27024;54.068;12.116;2023-04-24T01:59:05;6.95;;;4.50;;
583;SDS011;27024;54.068;12.116;2023-04-24T02:01:34;6.30;;;4.35;;
583;SDS011;27024;54.068;12.116;2023-04-24T02:04:03;6.15;;;4.43;;
583;SDS011;27024;54.068;12.116;2023-04-24T02:06:31;6.25;;;4.30;;
583;SDS011;27024;54.068;12.116;2023-04-24T02:08:58;9.25;;;4.55;;
583;SDS011;27024;54.068;12.116;2023-04-24T02:11:25;6.72;;;4.30;;
583;SDS011;27024;54.068;12.116;2023-04-24T02:13:52;8.07;;;4.40;;
583;SDS011;27024;54.068;12.116;2023-04-24T02:16:19;6.00;;;4.68;;
583;SDS011;27024;54.068;12.116;2023-04-24T02:18:46;6.68;;;4.43;;
583;SDS011;27024;54.068;12.116;2023-04-24T02:21:13;6.63;;;4.38;;
583;SDS011;27024;54.068;12.116;2023-04-24T02:23:40;6.53;;;4.38;;
583;SDS011;27024;54.068;12.116;2023-04-24T02:26:06;7.18;;;4.95;;
583;SDS011;27024;54.068;12.116;2023-04-24T02:28:33;8.07;;;5.00;;
583;SDS011;27024;54.068;12.116;2023-04-24T02:31:00;6.97;;;4.28;;
583;SDS011;27024;54.068;12.116;2023-04-24T02:33:27;9.80;;;5.63;;
583;SDS011;27024;54.068;12.116;2023-04-24T02:35:54;7.20;;;5.25;;
583;SDS011;27024;54.068;12.116;2023-04-24T02:38:20;7.40;;;4.45;;
583;SDS011;27024;54.068;12.116;2023-04-24T02:40:47;8.50;;;4.93;;
583;SDS011;27024;54.068;12.116;2023-04-24T02:43:14;9.32;;;5.63;;
583;SDS011;27024;54.068;12.116;2023-04-24T02:45:41;7.10;;;4.90;;
583;SDS011;27024;54.068;12.116;2023-04-24T02:48:08;8.40;;;4.80;;
583;SDS011;27024;54.068;12.116;2023-04-24T02:50:34;6.93;;;5.35;;
583;SDS011;27024;54.068;12.116;2023-04-24T02:53:01;6.47;;;4.75;;
583;SDS011;27024;54.068;12.116;2023-04-24T02:55:28;6.13;;;4.68;;
583;SDS011;27024;54.068;12.116;2023-04-24T02:57:55;8.85;;;4.80;;
583;SDS011;27024;54.068;12.116;2023-04-24T03:00:22;7.22;;;4.90;;
583;SDS011;27024;54.068;12.116;2023-04-24T03:02:49;6.68;;;4.85;;
583;SDS011;27024;54.068;12.116;2023-04-24T03:05:16;6.78;;;4.75;;
583;SDS011;27024;54.068;12.116;2023-04-24T03:07:43;7.65;;;4.88;;
583;SDS011;27024;54.068;12.116;2023-04-24T03:10:10;9.15;;;5.15;;
583;SDS011;27024;54.068;12.116;2023-04-24T03:12:36;7.03;;;4.72;;
583;SDS011;27024;54.068;12.116;2023-04-24T03:15:03;6.78;;;5.60;;
583;SDS011;27024;54.068;12.116;2023-04-24T03:17:30;6.88;;;5.03;;
583;SDS011;27024;54.068;12.116;2023-04-24T03:19:57;6.80;;;4.72;;
583;SDS011;27024;54.068;12.116;2023-04-24T03:22:24;6.85;;;4.68;;
583;SDS011;27024;54.068;12.116;2023-04-24T03:24:51;7.20;;;5.55;;
583;SDS011;27024;54.068;12.116;2023-04-24T03:27:18;8.65;;;4.90;;
583;SDS011;27024;54.068;12.116;2023-04-24T03:29:44;6.70;;;5.10;;
583;SDS011;27024;54.068;12.116;2023-04-24T03:32:11;6.55;;;4.35;;
583;SDS011;27024;54.068;12.116;2023-04-24T03:34:38;6.30;;;4.60;;
583;SDS011;27024;54.068;12.116;2023-04-24T03:37:05;7.80;;;5.25;;
583;SDS011;27024;54.068;12.116;2023-04-24T03:39:31;7.53;;;5.15;;
583;SDS011;27024;54.068;12.116;2023-04-24T03:41:58;6.68;;;4.88;;
583;SDS011;27024;54.068;12.116;2023-04-24T03:44:25;8.73;;;5.15;;
583;SDS011;27024;54.068;12.116;2023-04-24T03:46:52;8.60;;;5.88;;
583;SDS011;27024;54.068;12.116;2023-04-24T03:49:18;7.15;;;5.28;;
583;SDS011;27024;54.068;12.116;2023-04-24T03:51:47;8.93;;;5.50;;
583;SDS011;27024;54.068;12.116;2023-04-24T03:54:13;7.88;;;5.25;;
583;SDS011;27024;54.068;12.116;2023-04-24T03:56:40;8.40;;;5.35;;
583;SDS011;27024;54.068;12.116;2023-04-24T03:59:07;9.27;;;5.68;;
583;SDS011;27024;54.068;12.116;2023-04-24T04:01:34;8.10;;;5.40;;
583;SDS011;27024;54.068;12.116;2023-04-24T04:04:03;8.23;;;5.82;;
583;SDS011;27024;54.068;12.116;2023-04-24T04:06:31;7.43;;;5.18;;
583;SDS011;27024;54.068;12.116;2023-04-24T04:08:58;7.65;;;5.40;;
583;SDS011;27024;54.068;12.116;2023-04-24T04:11:25;8.35;;;5.45;;
583;SDS011;27024;54.068;12.116;2023-04-24T04:13:52;8.80;;;5.18;;
583;SDS011;27024;54.068;12.116;2023-04-24T04:16:19;8.75;;;5.90;;
583;SDS011;27024;54.068;12.116;2023-04-24T04:18:45;6.78;;;5.38;;
583;SDS011;27024;54.068;12.116;2023-04-24T04:21:12;7.97;;;5.18;;
583;SDS011;27024;54.068;12.116;2023-04-24T04:23:39;7.03;;;4.88;;
583;SDS011;27024;54.068;12.116;2023-04-24T04:26:06;9.32;;;5.40;;
583;SDS011;27024;54.068;12.116;2023-04-24T04:28:34;6.80;;;5.22;;
583;SDS011;27024;54.068;12.116;2023-04-24T04:31:01;8.48;;;5.25;;
583;SDS011;27024;54.068;12.116;2023-04-24T04:33:28;8.20;;;5.53;;
583;SDS011;27024;54.068;12.116;2023-04-24T04:35:55;8.35;;;5.53;;
583;SDS011;27024;54.068;12.116;2023-04-24T04:38:25;6.50;;;5.03;;
583;SDS011;27024;54.068;12.116;2023-04-24T04:40:56;7.05;;;5.15;;
583;SDS011;27024;54.068;12.116;2023-04-24T04:43:23;12.07;;;5.28;;
583;SDS011;27024;54.068;12.116;2023-04-24T04:45:50;7.53;;;5.43;;
583;SDS011;27024;54.068;12.116;2023-04-24T04:48:18;7.72;;;5.35;;
583;SDS011;27024;54.068;12.116;2023-04-24T04:50:45;6.82;;;4.60;;
583;SDS011;27024;54.068;12.116;2023-04-24T04:53:12;7.35;;;5.13;;
583;SDS011;27024;54.068;12.116;2023-04-24T04:55:39;7.50;;;5.18;;
583;SDS011;27024;54.068;12.116;2023-04-24T04:58:06;8.07;;;5.32;;
583;SDS011;27024;54.068;12.116;2023-04-24T05:00:33;6.45;;;5.20;;
583;SDS011;27024;54.068;12.116;2023-04-24T05:03:02;7.00;;;4.90;;
583;SDS011;27024;54.068;12.116;2023-04-24T05:05:45;7.97;;;5.38;;
583;SDS011;27024;54.068;12.116;2023-04-24T05:08:12;8.38;;;5.10;;
583;SDS011;27024;54.068;12.116;2023-04-24T05:10:52;7.70;;;5.30;;
583;SDS011;27024;54.068;12.116;2023-04-24T05:13:19;8.27;;;5.22;;
583;SDS011;27024;54.068;12.116;2023-04-24T05:16:01;9.55;;;5.20;;
583;SDS011;27024;54.068;12.116;2023-04-24T05:18:28;7.28;;;6.00;;
583;SDS011;27024;54.068;12.116;2023-04-24T05:20:54;9.20;;;4.80;;
583;SDS011;27024;54.068;12.116;2023-04-24T05:23:22;8.15;;;5.18;;
583;SDS011;27024;54.068;12.116;2023-04-24T05:25:48;7.78;;;5.55;;
583;SDS011;27024;54.068;12.116;2023-04-24T05:28:15;6.97;;;5.05;;
583;SDS011;27024;54.068;12.116;2023-04-24T05:30:42;6.30;;;5.03;;
583;SDS011;27024;54.068;12.116;2023-04-24T05:33:09;7.82;;;5.28;;
583;SDS011;27024;54.068;12.116;2023-04-24T05:35:36;7.88;;;6.25;;
583;SDS011;27024;54.068;12.116;2023-04-24T05:38:03;7.75;;;5.30;;
583;SDS011;27024;54.068;12.116;2023-04-24T05:40:30;7.38;;;5.47;;
583;SDS011;27024;54.068;12.116;2023-04-24T05:42:56;7.85;;;5.68;;
583;SDS011;27024;54.068;12.116;2023-04-24T05:45:23;8.65;;;5.38;;
583;SDS011;27024;54.068;12.116;2023-04-24T05:47:50;8.32;;;5.13;;
583;SDS011;27024;54.068;12.116;2023-04-24T05:50:19;6.88;;;4.97;;
583;SDS011;27024;54.068;12.116;2023-04-24T05:52:46;6.43;;;4.72;;
583;SDS011;27024;54.068;12.116;2023-04-24T05:55:13;10.30;;;5.25;;
583;SDS011;27024;54.068;12.116;2023-04-24T05:57:39;5.75;;;4.47;;
583;SDS011;27024;54.068;12.116;2023-04-24T06:00:06;6.43;;;4.82;;
583;SDS011;27024;54.068;12.116;2023-04-24T06:02:34;5.72;;;3.90;;
583;SDS011;27024;54.068;12.116;2023-04-24T06:05:01;5.75;;;4.40;;
583;SDS011;27024;54.068;12.116;2023-04-24T06:07:28;6.03;;;4.35;;
583;SDS011;27024;54.068;12.116;2023-04-24T06:09:55;5.65;;;4.00;;
583;SDS011;27024;54.068;12.116;2023-04-24T06:12:23;4.47;;;3.58;;
583;SDS011;27024;54.068;12.116;2023-04-24T06:14:49;6.07;;;3.92;;
583;SDS011;27024;54.068;12.116;2023-04-24T06:17:16;4.60;;;3.47;;
583;SDS011;27024;54.068;12.116;2023-04-24T06:19:43;5.20;;;3.83;;
583;SDS011;27024;54.068;12.116;2023-04-24T06:22:11;4.20;;;3.58;;
583;SDS011;27024;54.068;12.116;2023-04-24T06:24:39;6.63;;;4.93;;
583;SDS011;27024;54.068;12.116;2023-04-24T06:27:06;5.00;;;3.45;;
583;SDS011;27024;54.068;12.116;2023-04-24T06:29:33;5.25;;;3.28;;
583;SDS011;27024;54.068;12.116;2023-04-24T06:32:00;4.88;;;3.22;;
583;SDS011;27024;54.068;12.116;2023-04-24T06:34:27;4.18;;;3.10;;
583;SDS011;27024;54.068;12.116;2023-04-24T06:36:54;4.78;;;3.25;;
583;SDS011;27024;54.068;12.116;2023-04-24T06:39:21;3.92;;;2.97;;
583;SDS011;27024;54.068;12.116;2023-04-24T06:41:48;3.63;;;3.00;;
583;SDS011;27024;54.068;12.116;2023-04-24T06:44:15;3.67;;;2.40;;
583;SDS011;27024;54.068;12.116;2023-04-24T06:46:42;3.80;;;2.50;;
583;SDS011;27024;54.068;12.116;2023-04-24T06:49:09;3.95;;;2.50;;
583;SDS011;27024;54.068;12.116;2023-04-24T06:51:36;4.25;;;2.70;;
583;SDS011;27024;54.068;12.116;2023-04-24T06:54:03;3.40;;;2.20;;
583;SDS011;27024;54.068;12.116;2023-04-24T06:56:30;3.67;;;2.67;;
583;SDS011;27024;54.068;12.116;2023-04-24T06:58:57;4.38;;;2.80;;
583;SDS011;27024;54.068;12.116;2023-04-24T07:01:24;5.82;;;1.95;;
583;SDS011;27024;54.068;12.116;2023-04-24T07:03:51;4.53;;;2.10;;
583;SDS011;27024;54.068;12.116;2023-04-24T07:06:18;3.22;;;2.10;;
583;SDS011;27024;54.068;12.116;2023-04-24T07:08:48;5.80;;;2.25;;
583;SDS011;27024;54.068;12.116;2023-04-24T07:11:15;3.15;;;2.30;;
583;SDS011;27024;54.068;12.116;2023-04-24T07:13:42;3.10;;;1.75;;
583;SDS011;27024;54.068;12.116;2023-04-24T07:16:10;2.33;;;1.52;;
583;SDS011;27024;54.068;12.116;2023-04-24T07:18:38;3.38;;;2.08;;
583;SDS011;27024;54.068;12.116;2023-04-24T07:21:06;2.63;;;1.60;;
583;SDS011;27024;54.068;12.116;2023-04-24T07:23:33;3.25;;;2.20;;
583;SDS011;27024;54.068;12.116;2023-04-24T07:26:00;2.58;;;1.80;;
583;SDS011;27024;54.068;12.116;2023-04-24T07:28:27;2.60;;;1.58;;
583;SDS011;27024;54.068;12.116;2023-04-24T07:30:57;2.08;;;1.50;;
583;SDS011;27024;54.068;12.116;2023-04-24T07:33:25;4.50;;;2.13;;
583;SDS011;27024;54.068;12.116;2023-04-24T07:35:53;2.17;;;1.52;;
583;SDS011;27024;54.068;12.116;2023-04-24T07:38:20;3.05;;;1.70;;
583;SDS011;27024;54.068;12.116;2023-04-24T07:40:48;2.28;;;1.52;;
583;SDS011;27024;54.068;12.116;2023-04-24T07:43:15;2.33;;;1.55;;
583;SDS011;27024;54.068;12.116;2023-04-24T07:45:42;2.25;;;1.38;;
583;SDS011;27024;54.068;12.116;2023-04-24T07:48:09;1.65;;;1.20;;
583;SDS011;27024;54.068;12.116;2023-04-24T07:50:36;2.88;;;1.35;;
583;SDS011;27024;54.068;12.116;2023-04-24T07:53:03;2.50;;;1.58;;
583;SDS011;27024;54.068;12.116;2023-04-24T07:55:30;4.70;;;1.10;;
583;SDS011;27024;54.068;12.116;2023-04-24T07:57:57;2.53;;;1.42;;
583;SDS011;27024;54.068;12.116;2023-04-24T08:00:24;2.55;;;1.35;;
583;SDS011;27024;54.068;12.116;2023-04-24T08:02:51;1.75;;;1.05;;
583;SDS011;27024;54.068;12.116;2023-04-24T08:05:18;1.95;;;1.58;;
583;SDS011;27024;54.068;12.116;2023-04-24T08:07:46;2.58;;;1.45;;
583;SDS011;27024;54.068;12.116;2023-04-24T08:10:15;3.25;;;1.50;;
583;SDS011;27024;54.068;12.116;2023-04-24T08:12:41;2.50;;;1.45;;
583;SDS011;27024;54.068;12.116;2023-04-24T08:15:08;2.08;;;1.00;;
583;SDS011;27024;54.068;12.116;2023-04-24T08:17:35;2.38;;;1.60;;
583;SDS011;27024;54.068;12.116;2023-04-24T08:20:02;2.40;;;1.38;;
583;SDS011;27024;54.068;12.116;2023-04-24T08:22:31;2.42;;;1.17;;
583;SDS011;27024;54.068;12.116;2023-04-24T08:24:59;2.45;;;1.58;;
583;SDS011;27024;54.068;12.116;2023-04-24T08:27:26;3.88;;;1.30;;
583;SDS011;27024;54.068;12.116;2023-04-24T08:29:54;2.17;;;1.17;;
583;SDS011;27024;54.068;12.116;2023-04-24T08:32:21;2.85;;;1.10;;
583;SDS011;27024;54.068;12.116;2023-04-24T08:34:48;1.80;;;1.48;;
583;SDS011;27024;54.068;12.116;2023-04-24T08:37:15;2.22;;;0.85;;
583;SDS011;27024;54.068;12.116;2023-04-24T08:39:42;2.38;;;1.27;;
583;SDS011;27024;54.068;12.116;2023-04-24T08:42:09;1.90;;;1.20;;
583;SDS011;27024;54.068;12.116;2023-04-24T08:44:38;1.73;;;1.30;;
583;SDS011;27024;54.068;12.116;2023-04-24T08:47:04;2.15;;;1.00;;
583;SDS011;27024;54.068;12.116;2023-04-24T08:49:33;1.80;;;1.27;;
583;SDS011;27024;54.068;12.116;2023-04-24T08:52:02;1.63;;;1.10;;
583;SDS011;27024;54.068;12.116;2023-04-24T08:54:29;1.77;;;0.80;;
583;SDS011;27024;54.068;12.116;2023-04-24T08:56:58;2.90;;;0.93;;
583;SDS011;27024;54.068;12.116;2023-04-24T08:59:28;1.75;;;0.77;;
583;SDS011;27024;54.068;12.116;2023-04-24T09:01:55;1.85;;;1.02;;
583;SDS011;27024;54.068;12.116;2023-04-24T09:04:23;1.58;;;1.13;;
583;SDS011;27024;54.068;12.116;2023-04-24T09:06:55;1.88;;;0.98;;
583;SDS011;27024;54.068;12.116;2023-04-24T09:09:23;3.95;;;1.13;;
583;SDS011;27024;54.068;12.116;2023-04-24T09:11:51;1.73;;;0.90;;
583;SDS011;27024;54.068;12.116;2023-04-24T09:14:21;3.00;;;1.38;;
583;SDS011;27024;54.068;12.116;2023-04-24T09:16:50;1.52;;;0.93;;
583;SDS011;27024;54.068;12.116;2023-04-24T09:19:17;1.65;;;1.20;;
583;SDS011;27024;54.068;12.116;2023-04-24T09:21:47;2.85;;;1.27;;
583;SDS011;27024;54.068;12.116;2023-04-24T09:24:15;4.57;;;1.13;;
583;SDS011;27024;54.068;12.116;2023-04-24T09:26:44;3.03;;;0.95;;
583;SDS011;27024;54.068;12.116;2023-04-24T09:29:15;2.08;;;1.17;;
583;SDS011;27024;54.068;12.116;2023-04-24T09:31:44;1.95;;;0.80;;
583;SDS011;27024;54.068;12.116;2023-04-24T09:34:11;1.83;;;1.30;;
583;SDS011;27024;54.068;12.116;2023-04-24T09:36:39;2.42;;;1.40;;
583;SDS011;27024;54.068;12.116;2023-04-24T09:39:09;2.60;;;1.02;;
583;SDS011;27024;54.068;12.116;2023-04-24T09:44:13;1.70;;;1.45;;
583;SDS011;27024;54.068;12.116;2023-04-24T09:46:44;1.95;;;1.70;;
583;SDS011;27024;54.068;12.116;2023-04-24T09:49:16;1.42;;;1.00;;
583;SDS011;27024;54.068;12.116;2023-04-24T09:51:49;2.10;;;1.15;;
583;SDS011;27024;54.068;12.116;2023-04-24T09:54:16;1.60;;;1.25;;
583;SDS011;27024;54.068;12.116;2023-04-24T09:56:47;1.98;;;1.02;;
583;SDS011;27024;54.068;12.116;2023-04-24T09:59:17;1.70;;;1.35;;
583;SDS011;27024;54.068;12.116;2023-04-24T10:01:44;2.22;;;1.15;;
583;SDS011;27024;54.068;12.116;2023-04-24T10:04:19;1.83;;;1.13;;
583;SDS011;27024;54.068;12.116;2023-04-24T10:06:48;1.58;;;1.20;;
583;SDS011;27024;54.068;12.116;2023-04-24T10:09:20;2.13;;;1.10;;
583;SDS011;27024;54.068;12.116;2023-04-24T10:11:50;1.70;;;1.00;;
583;SDS011;27024;54.068;12.116;2023-04-24T10:14:20;2.58;;;1.17;;
583;SDS011;27024;54.068;12.116;2023-04-24T10:16:48;1.45;;;1.05;;
583;SDS011;27024;54.068;12.116;2023-04-24T10:19:16;1.60;;;1.02;;
583;SDS011;27024;54.068;12.116;2023-04-24T10:21:46;2.58;;;1.20;;
583;SDS011;27024;54.068;12.116;2023-04-24T10:24:17;1.50;;;1.05;;
583;SDS011;27024;54.068;12.116;2023-04-24T10:26:47;1.55;;;0.93;;
583;SDS011;27024;54.068;12.116;2023-04-24T10:29:16;2.10;;;1.25;;
583;SDS011;27024;54.068;12.116;2023-04-24T10:31:44;1.63;;;1.15;;
583;SDS011;27024;54.068;12.116;2023-04-24T10:34:14;2.95;;;0.93;;
583;SDS011;27024;54.068;12.116;2023-04-24T10:36:46;1.85;;;0.90;;
583;SDS011;27024;54.068;12.116;2023-04-24T10:39:17;3.72;;;1.27;;
583;SDS011;27024;54.068;12.116;2023-04-24T10:41:53;1.70;;;0.88;;
583;SDS011;27024;54.068;12.116;2023-04-24T10:44:24;2.25;;;0.80;;
583;SDS011;27024;54.068;12.116;2023-04-24T10:46:54;1.40;;;0.90;;
583;SDS011;27024;54.068;12.116;2023-04-24T10:49:31;1.50;;;1.13;;
583;SDS011;27024;54.068;12.116;2023-04-24T10:52:00;3.75;;;1.20;;
583;SDS011;27024;54.068;12.116;2023-04-24T10:54:29;1.25;;;0.88;;
583;SDS011;27024;54.068;12.116;2023-04-24T10:59:49;1.42;;;0.90;;
583;SDS011;27024;54.068;12.116;2023-04-24T11:02:36;2.47;;;0.88;;
583;SDS011;27024;54.068;12.116;2023-04-24T11:05:04;1.65;;;0.90;;
583;SDS011;27024;54.068;12.116;2023-04-24T11:10:46;1.63;;;1.23;;
583;SDS011;27024;54.068;12.116;2023-04-24T11:13:14;2.70;;;1.45;;
583;SDS011;27024;54.068;12.116;2023-04-24T11:15:42;1.50;;;0.80;;
583;SDS011;27024;54.068;12.116;2023-04-24T11:18:13;1.58;;;0.90;;
583;SDS011;27024;54.068;12.116;2023-04-24T11:20:44;2.42;;;1.05;;
583;SDS011;27024;54.068;12.116;2023-04-24T11:23:12;2.35;;;1.08;;
583;SDS011;27024;54.068;12.116;2023-04-24T11:25:39;1.30;;;0.95;;
583;SDS011;27024;54.068;12.116;2023-04-24T11:28:08;1.92;;;0.90;;
583;SDS011;27024;54.068;12.116;2023-04-24T11:30:42;2.22;;;1.02;;
583;SDS011;27024;54.068;12.116;2023-04-24T11:33:09;1.55;;;0.70;;
583;SDS011;27024;54.068;12.116;2023-04-24T11:35:39;1.40;;;1.00;;
583;SDS011;27024;54.068;12.116;2023-04-24T11:38:06;1.40;;;0.68;;
583;SDS011;27024;54.068;12.116;2023-04-24T11:40:36;1.48;;;0.80;;
583;SDS011;27024;54.068;12.116;2023-04-24T11:43:04;2.20;;;1.58;;
583;SDS011;27024;54.068;12.116;2023-04-24T11:45:33;1.70;;;0.70;;
583;SDS011;27024;54.068;12.116;2023-04-24T11:48:02;1.42;;;0.95;;
583;SDS011;27024;54.068;12.116;2023-04-24T11:50:30;1.45;;;0.82;;
583;SDS011;27024;54.068;12.116;2023-04-24T11:52:57;1.33;;;0.73;;
583;SDS011;27024;54.068;12.116;2023-04-24T11:55:25;1.85;;;0.93;;
583;SDS011;27024;54.068;12.116;2023-04-24T11:57:57;1.73;;;0.70;;
583;SDS011;27024;54.068;12.116;2023-04-24T12:00:26;1.38;;;0.85;;
583;SDS011;27024;54.068;12.116;2023-04-24T12:03:07;1.33;;;0.88;;
583;SDS011;27024;54.068;12.116;2023-04-24T12:05:35;2.28;;;1.35;;
583;SDS011;27024;54.068;12.116;2023-04-24T12:08:03;4.15;;;0.85;;
583;SDS011;27024;54.068;12.116;2023-04-24T12:10:30;1.33;;;0.70;;
583;SDS011;27024;54.068;12.116;2023-04-24T12:12:59;1.20;;;0.70;;
583;SDS011;27024;54.068;12.116;2023-04-24T12:15:26;1.48;;;0.80;;
583;SDS011;27024;54.068;12.116;2023-04-24T12:17:54;1.95;;;0.70;;
583;SDS011;27024;54.068;12.116;2023-04-24T12:20:26;2.20;;;0.85;;
583;SDS011;27024;54.068;12.116;2023-04-24T12:22:55;1.20;;;0.60;;
583;SDS011;27024;54.068;12.116;2023-04-24T12:25:23;1.35;;;0.60;;
583;SDS011;27024;54.068;12.116;2023-04-24T12:30:35;1.30;;;0.60;;
583;SDS011;27024;54.068;12.116;2023-04-24T12:33:05;1.40;;;0.90;;
583;SDS011;27024;54.068;12.116;2023-04-24T12:35:32;1.23;;;0.80;;
583;SDS011;27024;54.068;12.116;2023-04-24T12:38:11;2.15;;;1.08;;
583;SDS011;27024;54.068;12.116;2023-04-24T12:40:39;2.47;;;1.05;;
583;SDS011;27024;54.068;12.116;2023-04-24T12:43:13;4.13;;;0.93;;
583;SDS011;27024;54.068;12.116;2023-04-24T12:45:42;2.08;;;1.10;;
583;SDS011;27024;54.068;12.116;2023-04-24T12:48:09;4.45;;;1.20;;
583;SDS011;27024;54.068;12.116;2023-04-24T12:50:36;2.00;;;1.55;;
583;SDS011;27024;54.068;12.116;2023-04-24T12:53:03;2.78;;;1.17;;
583;SDS011;27024;54.068;12.116;2023-04-24T12:55:30;1.20;;;0.68;;
583;SDS011;27024;54.068;12.116;2023-04-24T12:57:57;1.50;;;0.80;;
583;SDS011;27024;54.068;12.116;2023-04-24T13:00:24;1.42;;;0.80;;
583;SDS011;27024;54.068;12.116;2023-04-24T13:02:51;2.15;;;0.50;;
583;SDS011;27024;54.068;12.116;2023-04-24T13:05:18;1.73;;;0.60;;
583;SDS011;27024;54.068;12.116;2023-04-24T13:07:45;1.65;;;0.70;;
583;SDS011;27024;54.068;12.116;2023-04-24T13:10:12;1.60;;;1.00;;
583;SDS011;27024;54.068;12.116;2023-04-24T13:12:39;1.23;;;0.80;;
583;SDS011;27024;54.068;12.116;2023-04-24T13:15:07;1.45;;;0.63;;
583;SDS011;27024;54.068;12.116;2023-04-24T13:17:34;4.93;;;0.80;;
583;SDS011;27024;54.068;12.116;2023-04-24T13:20:01;1.65;;;1.02;;
583;SDS011;27024;54.068;12.116;2023-04-24T13:22:29;1.25;;;0.63;;
583;SDS011;27024;54.068;12.116;2023-04-24T13:24:55;1.73;;;0.90;;
583;SDS011;27024;54.068;12.116;2023-04-24T13:27:23;3.15;;;1.00;;
583;SDS011;27024;54.068;12.116;2023-04-24T13:29:50;2.17;;;0.90;;
583;SDS011;27024;54.068;12.116;2023-04-24T13:32:17;1.77;;;0.95;;
583;SDS011;27024;54.068;12.116;2023-04-24T13:34:44;3.05;;;1.27;;
583;SDS011;27024;54.068;12.116;2023-04-24T13:37:11;5.43;;;1.15;;
583;SDS011;27024;54.068;12.116;2023-04-24T13:39:38;1.80;;;1.20;;
583;SDS011;27024;54.068;12.116;2023-04-24T13:42:05;1.70;;;1.23;;
583;SDS011;27024;54.068;12.116;2023-04-24T13:44:32;2.08;;;1.10;;
583;SDS011;27024;54.068;12.116;2023-04-24T13:46:59;2.85;;;1.20;;
583;SDS011;27024;54.068;12.116;2023-04-24T13:49:26;2.05;;;1.27;;
583;SDS011;27024;54.068;12.116;2023-04-24T13:51:54;2.58;;;1.48;;
583;SDS011;27024;54.068;12.116;2023-04-24T13:54:21;2.65;;;1.75;;
583;SDS011;27024;54.068;12.116;2023-04-24T13:56:50;3.45;;;1.65;;
583;SDS011;27024;54.068;12.116;2023-04-24T13:59:19;3.03;;;2.38;;
583;SDS011;27024;54.068;12.116;2023-04-24T14:01:47;3.92;;;1.70;;
583;SDS011;27024;54.068;12.116;2023-04-24T14:04:14;3.13;;;1.98;;
583;SDS011;27024;54.068;12.116;2023-04-24T14:06:41;2.33;;;1.60;;
583;SDS011;27024;54.068;12.116;2023-04-24T14:09:08;3.55;;;2.05;;
583;SDS011;27024;54.068;12.116;2023-04-24T14:11:35;1.80;;;1.23;;
583;SDS011;27024;54.068;12.116;2023-04-24T14:14:02;2.95;;;2.40;;
583;SDS011;27024;54.068;12.116;2023-04-24T14:16:29;2.60;;;2.15;;
583;SDS011;27024;54.068;12.116;2023-04-24T14:18:57;4.00;;;2.25;;
583;SDS011;27024;54.068;12.116;2023-04-24T14:21:24;2.92;;;1.98;;
583;SDS011;27024;54.068;12.116;2023-04-24T14:23:50;3.55;;;2.85;;
583;SDS011;27024;54.068;12.116;2023-04-24T14:26:17;3.00;;;2.20;;
583;SDS011;27024;54.068;12.116;2023-04-24T14:28:45;3.03;;;2.42;;
583;SDS011;27024;54.068;12.116;2023-04-24T14:31:12;3.75;;;2.65;;
583;SDS011;27024;54.068;12.116;2023-04-24T14:33:39;3.20;;;2.70;;
583;SDS011;27024;54.068;12.116;2023-04-24T14:36:06;4.40;;;2.65;;
583;SDS011;27024;54.068;12.116;2023-04-24T14:38:32;5.55;;;2.72;;
583;SDS011;27024;54.068;12.116;2023-04-24T14:41:00;3.72;;;2.88;;
583;SDS011;27024;54.068;12.116;2023-04-24T14:43:30;3.47;;;2.58;;
583;SDS011;27024;54.068;12.116;2023-04-24T14:45:57;4.97;;;2.83;;
583;SDS011;27024;54.068;12.116;2023-04-24T14:48:24;4.35;;;2.92;;
583;SDS011;27024;54.068;12.116;2023-04-24T14:50:51;5.43;;;3.25;;
583;SDS011;27024;54.068;12.116;2023-04-24T14:53:18;3.03;;;2.47;;
583;SDS011;27024;54.068;12.116;2023-04-24T14:55:45;4.18;;;2.70;;
583;SDS011;27024;54.068;12.116;2023-04-24T14:58:11;3.90;;;2.50;;
583;SDS011;27024;54.068;12.116;2023-04-24T15:00:38;4.80;;;3.65;;
583;SDS011;27024;54.068;12.116;2023-04-24T15:03:05;3.30;;;2.63;;
583;SDS011;27024;54.068;12.116;2023-04-24T15:05:33;3.53;;;2.67;;
583;SDS011;27024;54.068;12.116;2023-04-24T15:08:00;3.42;;;2.63;;
583;SDS011;27024;54.068;12.116;2023-04-24T15:10:27;5.63;;;3.13;;
583;SDS011;27024;54.068;12.116;2023-04-24T15:12:55;4.88;;;3.17;;
583;SDS011;27024;54.068;12.116;2023-04-24T15:15:22;3.97;;;2.80;;